Time;durP1;ratioP1;P1;durP2;ratioP2;P2;SDS_P1;SDS_P2;PMS_P1;PMS_P2;Temp;Humidity;BMP_temperature;BMP_pressure;BME280_temperature;BME280_humidity;BME280_pressure;Samples;Min_cycle;Max_cycle;Signal;HPM_P1;HPM_P2
2022/02/15 00:00:06;;;;;;;11.37;4.10;;;;;;;-1.18;65.61;100406.00;1785663;78;21103;-52
2022/02/15 00:02:34;;;;;;;12.90;3.63;;;;;;;-1.20;65.65;100415.69;1787797;78;21025;-52
2022/02/15 00:05:00;;;;;;;11.10;3.80;;;;;;;-1.21;65.68;100411.27;1790284;78;21194;-52
2022/02/15 00:07:27;;;;;;;10.80;4.10;;;;;;;-1.23;65.72;100406.40;1787033;78;21730;-52
2022/02/15 00:09:53;;;;;;;14.90;5.57;;;;;;;-1.24;65.71;100408.16;1785253;78;20933;-52
2022/02/15 00:12:20;;;;;;;20.80;8.80;;;;;;;-1.25;65.71;100411.66;1754578;80;20874;-52
2022/02/15 00:14:46;;;;;;;26.07;11.13;;;;;;;-1.28;65.74;100405.05;1790949;78;21414;-52
2022/02/15 00:17:13;;;;;;;32.97;14.57;;;;;;;-1.31;65.79;100404.13;1752340;80;20910;-52
2022/02/15 00:19:40;;;;;;;34.50;13.17;;;;;;;-1.34;65.78;100404.08;1764501;80;21380;-52
2022/02/15 00:22:06;;;;;;;24.77;10.37;;;;;;;-1.38;65.86;100396.58;1767177;80;20945;-52
2022/02/15 00:24:32;;;;;;;25.63;11.90;;;;;;;-1.39;65.91;100400.52;1766864;80;20921;-52
2022/02/15 00:26:59;;;;;;;32.60;11.80;;;;;;;-1.41;65.96;100397.86;1764694;79;20926;-52
2022/02/15 00:29:26;;;;;;;25.77;11.97;;;;;;;-1.41;65.97;100398.30;1764639;79;20918;-52
2022/02/15 00:31:52;;;;;;;29.47;12.33;;;;;;;-1.47;66.02;100389.89;1763013;80;21464;-52
2022/02/15 00:34:18;;;;;;;26.67;12.47;;;;;;;-1.52;66.12;100388.94;1764512;79;20922;-51
2022/02/15 00:36:45;;;;;;;28.27;11.70;;;;;;;-1.58;66.23;100387.13;1762441;80;21466;-52
2022/02/15 00:39:11;;;;;;;24.87;11.27;;;;;;;-1.63;66.30;100380.93;1761182;79;21037;-51
2022/02/15 00:41:38;;;;;;;18.97;8.43;;;;;;;-1.66;66.45;100378.67;1762473;79;21099;-51
2022/02/15 00:44:04;;;;;;;18.40;8.70;;;;;;;-1.69;66.49;100375.56;1762249;79;21829;-51
2022/02/15 00:46:32;;;;;;;13.67;6.90;;;;;;;-1.72;66.53;100383.47;1761535;79;21067;-51
2022/02/15 00:48:58;;;;;;;16.07;7.47;;;;;;;-1.75;66.56;100375.94;1759231;79;21104;-51
2022/02/15 00:51:25;;;;;;;12.20;5.10;;;;;;;-1.79;66.67;100376.35;1763017;79;21920;-51
2022/02/15 00:53:52;;;;;;;13.33;5.10;;;;;;;-1.81;66.72;100376.76;1766517;79;21384;-51
2022/02/15 00:56:18;;;;;;;6.23;2.90;;;;;;;-1.84;66.78;100375.39;1761327;79;21127;-51
2022/02/15 00:58:45;;;;;;;9.27;3.47;;;;;;;-1.86;66.82;100375.80;1733345;79;20905;-51
2022/02/15 01:01:11;;;;;;;5.93;3.40;;;;;;;-1.86;66.86;100374.92;1782062;78;21344;-51
2022/02/15 01:03:41;;;;;;;13.47;3.27;;;;;;;-1.86;66.87;100374.92;1750259;78;21017;-51
2022/02/15 01:06:07;;;;;;;7.50;2.80;;;;;;;-1.87;66.91;100366.11;1778590;78;21100;-52
2022/02/15 01:08:34;;;;;;;4.83;2.27;;;;;;;-1.86;66.92;100377.13;1747633;80;21823;-52
2022/02/15 01:11:00;;;;;;;7.00;3.17;;;;;;;-1.87;66.90;100378.45;1778113;78;21048;-52
2022/02/15 01:13:26;;;;;;;4.83;2.10;;;;;;;-1.87;66.91;100382.41;1782750;78;21140;-52
2022/02/15 01:15:53;;;;;;;7.90;2.87;;;;;;;-1.88;66.93;100378.88;1784267;78;21422;-51
2022/02/15 01:18:20;;;;;;;5.93;2.43;;;;;;;-1.88;67.01;100380.63;1753825;80;21557;-52
2022/02/15 01:20:46;;;;;;;10.03;2.67;;;;;;;-1.89;67.04;100379.75;1782012;78;21192;-52
2022/02/15 01:23:14;;;;;;;5.93;2.23;;;;;;;-1.90;67.01;100385.89;1782825;78;21045;-52
2022/02/15 01:25:41;;;;;;;6.10;2.63;;;;;;;-1.90;67.01;100380.61;1786302;79;21493;-52
2022/02/15 01:28:08;;;;;;;5.87;2.23;;;;;;;-1.93;67.02;100377.49;1747162;80;21116;-52
2022/02/15 01:30:36;;;;;;;8.97;2.57;;;;;;;-1.93;67.02;100380.13;1780581;78;21132;-52
2022/02/15 01:33:03;;;;;;;8.10;2.00;;;;;;;-1.93;66.95;100380.56;1762223;80;21657;-52
2022/02/15 01:35:31;;;;;;;5.30;2.20;;;;;;;-1.95;66.92;100375.70;1761719;80;21466;-52
2022/02/15 01:37:57;;;;;;;3.70;1.47;;;;;;;-1.99;66.92;100377.86;1763163;79;21525;-52
2022/02/15 01:40:24;;;;;;;5.53;1.73;;;;;;;-2.04;67.12;100377.79;1763550;79;21737;-51
2022/02/15 01:42:51;;;;;;;6.00;1.30;;;;;;;-2.05;67.27;100375.16;1763706;80;21096;-52
2022/02/15 01:45:18;;;;;;;5.10;1.63;;;;;;;-2.07;67.43;100367.22;1763634;79;21202;-52
2022/02/15 01:47:45;;;;;;;2.93;1.33;;;;;;;-2.07;67.53;100372.50;1736529;79;21112;-52
2022/02/15 01:50:12;;;;;;;4.03;1.47;;;;;;;-2.10;67.53;100373.77;1762495;79;21033;-52
2022/02/15 01:52:40;;;;;;;3.00;1.17;;;;;;;-2.12;67.57;100373.28;1760021;79;21036;-52
2022/02/15 01:55:09;;;;;;;4.73;1.00;;;;;;;-2.15;67.62;100372.84;1761133;79;21155;-52
2022/02/15 01:57:36;;;;;;;3.43;1.50;;;;;;;-2.17;67.75;100371.03;1765654;79;21118;-52
2022/02/15 02:00:10;;;;;;;3.23;1.23;;;;;;;-2.21;67.90;100370.56;1745169;80;20954;-52
2022/02/15 02:02:44;;;;;;;5.70;1.50;;;;;;;-2.22;68.06;100372.74;1754348;80;20867;-52
2022/02/15 02:07:57;;;;;;;8.47;3.30;;;;;;;-2.21;68.23;100378.01;1755274;80;21383;-51
2022/02/15 02:10:25;;;;;;;5.03;1.93;;;;;;;-2.20;68.31;100370.98;1726307;80;21744;-51
2022/02/15 02:12:52;;;;;;;6.50;1.67;;;;;;;-2.18;68.41;100373.22;1752498;79;21092;-51
2022/02/15 02:15:24;;;;;;;3.60;1.30;;;;;;;-2.20;68.43;100369.66;1755070;80;21660;-51
2022/02/15 02:18:09;;;;;;;4.83;1.60;;;;;;;-2.22;68.42;100367.03;1752799;80;21029;-51
2022/02/15 02:20:36;;;;;;;4.33;1.37;;;;;;;-2.23;68.58;100369.22;1721507;80;21061;-51
2022/02/15 02:23:03;;;;;;;4.80;1.33;;;;;;;-2.21;68.65;100367.92;1776623;78;22192;-51
2022/02/15 02:25:29;;;;;;;4.03;1.90;;;;;;;-2.25;68.60;100375.33;1753335;80;22045;-51
2022/02/15 02:27:58;;;;;;;4.17;1.47;;;;;;;-2.28;68.65;100372.20;1754162;80;22296;-51
2022/02/15 02:30:25;;;;;;;4.57;1.97;;;;;;;-2.34;68.69;100366.43;1746088;80;21093;-51
2022/02/15 02:32:53;;;;;;;6.90;2.03;;;;;;;-2.38;68.81;100375.58;1749588;80;21427;-51
2022/02/15 02:35:20;;;;;;;10.70;4.43;;;;;;;-2.40;69.04;100374.27;1747328;80;21502;-51
2022/02/15 02:37:47;;;;;;;5.77;2.83;;;;;;;-2.42;69.06;100363.24;1776184;79;21250;-51
2022/02/15 02:40:13;;;;;;;6.33;2.37;;;;;;;-2.44;69.15;100372.44;1778545;79;21048;-51
2022/02/15 02:42:41;;;;;;;4.10;1.90;;;;;;;-2.48;69.26;100370.64;1776789;79;21034;-51
2022/02/15 02:45:12;;;;;;;7.03;2.73;;;;;;;-2.51;69.45;100370.59;1778797;79;20898;-51
2022/02/15 02:47:47;;;;;;;7.73;3.07;;;;;;;-2.52;69.64;100366.17;1777773;79;21565;-51
2022/02/15 02:50:15;;;;;;;7.57;4.17;;;;;;;-2.51;69.76;100370.59;1777578;79;20955;-51
2022/02/15 02:52:42;;;;;;;7.80;3.77;;;;;;;-2.50;69.88;100372.80;1776427;79;20986;-51
2022/02/15 02:55:08;;;;;;;8.80;3.07;;;;;;;-2.52;70.07;100367.92;1776552;79;20902;-54
2022/02/15 02:57:35;;;;;;;6.13;2.40;;;;;;;-2.52;70.22;100374.09;1772410;79;20924;-51
2022/02/15 03:00:07;;;;;;;6.13;2.53;;;;;;;-2.52;70.35;100374.09;1762119;79;21118;-51
2022/02/15 03:02:36;;;;;;;5.08;2.83;;;;;;;-2.52;70.47;100371.88;1756522;79;21377;-51
2022/02/15 03:05:02;;;;;;;7.10;3.97;;;;;;;-2.53;70.51;100369.67;1741517;81;21542;-52
2022/02/15 03:07:29;;;;;;;8.67;4.50;;;;;;;-2.52;70.60;100371.45;1746861;80;20926;-53
2022/02/15 03:09:55;;;;;;;10.30;4.23;;;;;;;-2.49;70.67;100365.34;1744815;80;20933;-52
2022/02/15 03:12:22;;;;;;;10.17;5.83;;;;;;;-2.47;70.70;100376.37;1742358;80;21471;-52
2022/02/15 03:14:48;;;;;;;6.47;2.63;;;;;;;-2.46;70.64;100373.27;1743136;81;20912;-52
2022/02/15 03:17:18;;;;;;;6.10;2.43;;;;;;;-2.45;70.63;100373.73;1748425;80;21048;-52
2022/02/15 03:19:45;;;;;;;5.27;1.63;;;;;;;-2.45;70.70;100373.30;1749295;80;21321;-52
2022/02/15 03:22:11;;;;;;;3.53;1.60;;;;;;;-2.42;70.79;100375.10;1762371;79;21515;-52
2022/02/15 03:24:39;;;;;;;5.23;2.00;;;;;;;-2.43;70.72;100368.94;1762265;79;21420;-52
2022/02/15 03:27:05;;;;;;;5.03;1.73;;;;;;;-2.41;70.73;100370.29;1760948;79;21347;-53
2022/02/15 03:29:32;;;;;;;3.80;1.33;;;;;;;-2.40;70.72;100374.70;1760506;79;21364;-53
2022/02/15 03:31:58;;;;;;;8.47;2.50;;;;;;;-2.38;70.71;100365.92;1764360;79;21419;-53
2022/02/15 03:34:25;;;;;;;3.53;1.33;;;;;;;-2.36;70.58;100364.62;1765109;79;20925;-53
2022/02/15 03:36:52;;;;;;;2.93;1.23;;;;;;;-2.36;70.61;100365.52;1763536;79;21590;-53
2022/02/15 03:39:20;;;;;;;4.20;1.20;;;;;;;-2.35;70.75;100362.02;1761818;79;21653;-53
2022/02/15 03:44:36;;;;;;;3.80;1.37;;;;;;;-2.32;70.76;100367.34;1759680;79;21091;-53
2022/02/15 03:47:04;;;;;;;3.90;1.43;;;;;;;-2.33;70.71;100372.16;1760914;79;21100;-53
2022/02/15 03:49:33;;;;;;;4.33;1.40;;;;;;;-2.34;70.64;100370.39;1783721;79;21136;-52
2022/02/15 03:51:59;;;;;;;4.20;1.20;;;;;;;-2.34;70.71;100371.70;1765376;79;21045;-53
2022/02/15 03:54:26;;;;;;;2.33;1.20;;;;;;;-2.34;70.76;100370.39;1766841;79;20918;-53
2022/02/15 03:56:52;;;;;;;1.83;1.13;;;;;;;-2.33;70.81;100374.80;1767864;79;20921;-52
2022/02/15 03:59:19;;;;;;;6.47;1.50;;;;;;;-2.32;70.81;100374.37;1767768;79;20965;-53
2022/02/15 04:01:47;;;;;;;3.57;1.30;;;;;;;-2.32;70.76;100370.41;1782967;78;21087;-53
2022/02/15 04:04:13;;;;;;;3.70;1.47;;;;;;;-2.30;70.88;100370.86;1770194;79;21112;-53
2022/02/15 04:06:40;;;;;;;4.23;1.60;;;;;;;-2.29;70.89;100365.16;1762338;79;21531;-53
2022/02/15 04:09:07;;;;;;;3.97;1.40;;;;;;;-2.29;70.80;100363.41;1764614;79;21095;-53
2022/02/15 04:11:36;;;;;;;5.10;1.20;;;;;;;-2.26;70.86;100368.28;1784955;78;21586;-53
2022/02/15 04:14:02;;;;;;;2.67;1.13;;;;;;;-2.26;70.75;100367.84;1780103;78;21097;-53
2022/02/15 04:16:29;;;;;;;3.93;1.23;;;;;;;-2.26;70.79;100370.91;1754326;80;21091;-52
2022/02/15 04:18:55;;;;;;;3.20;1.23;;;;;;;-2.25;70.80;100371.38;1780716;78;21052;-53
2022/02/15 04:21:26;;;;;;;4.07;1.57;;;;;;;-2.25;70.76;100372.69;1750726;80;21329;-53
2022/02/15 04:23:51;;;;;;;4.00;1.40;;;;;;;-2.24;70.83;100370.52;1775866;78;22080;-53
2022/02/15 04:26:17;;;;;;;2.23;0.93;;;;;;;-2.22;70.83;100372.74;1750121;80;21137;-53
2022/02/15 04:28:44;;;;;;;1.87;1.03;;;;;;;-2.23;70.70;100369.65;1747001;80;21530;-53
2022/02/15 04:31:15;;;;;;;5.17;1.50;;;;;;;-2.24;70.76;100370.08;1779032;78;21644;-53
2022/02/15 04:33:42;;;;;;;4.13;1.30;;;;;;;-2.22;70.82;100376.27;1776512;78;21413;-53
2022/02/15 04:36:08;;;;;;;5.97;1.40;;;;;;;-2.21;70.77;100366.61;1756479;80;21690;-53
2022/02/15 04:38:35;;;;;;;3.70;1.17;;;;;;;-2.21;70.84;100370.09;1754223;80;21699;-53
2022/02/15 04:41:01;;;;;;;3.00;1.13;;;;;;;-2.22;70.72;100367.47;1785224;78;21067;-53
2022/02/15 04:44:37;;;;;;;1.80;1.07;;;;;;;-2.20;70.82;100369.66;1788895;78;26727;-53
2022/02/15 04:47:04;;;;;;;2.60;1.30;;;;;;;-2.23;70.79;100378.88;1736013;80;21033;-53
2022/02/15 04:49:32;;;;;;;4.77;1.57;;;;;;;-2.24;70.76;100377.98;1765804;80;21621;-53
2022/02/15 04:51:59;;;;;;;5.33;1.60;;;;;;;-2.23;70.71;100380.20;1771294;80;21386;-53
2022/02/15 04:54:26;;;;;;;3.97;1.73;;;;;;;-2.25;70.81;100376.22;1768164;80;21032;-53
2022/02/15 04:56:53;;;;;;;4.77;2.70;;;;;;;-2.23;70.83;100385.04;1767903;80;20963;-52
2022/02/15 04:59:20;;;;;;;2.90;1.33;;;;;;;-2.24;70.83;100381.06;1767864;80;21049;-53
2022/02/15 05:01:47;;;;;;;4.33;1.37;;;;;;;-2.25;70.74;100381.92;1713481;81;20956;-53
2022/02/15 05:07:00;;;;;;;3.75;1.30;;;;;;;-2.26;70.71;100384.10;1715750;81;25084;-52
2022/02/15 05:09:28;;;;;;;6.07;1.70;;;;;;;-2.27;70.67;100388.92;1706219;83;21089;-52
2022/02/15 05:11:56;;;;;;;6.30;1.40;;;;;;;-2.29;70.68;100386.25;1725881;82;21288;-52
2022/02/15 05:14:23;;;;;;;3.47;1.30;;;;;;;-2.30;70.57;100385.37;1723149;82;22092;-52
2022/02/15 05:16:51;;;;;;;7.00;1.87;;;;;;;-2.31;70.53;100395.48;1721060;82;21128;-53
2022/02/15 05:19:19;;;;;;;6.20;1.93;;;;;;;-2.32;70.51;100393.72;1718286;81;21049;-53
2022/02/15 05:21:48;;;;;;;3.93;1.40;;;;;;;-2.31;70.53;100389.33;1721228;82;21601;-53
2022/02/15 05:24:14;;;;;;;7.53;1.60;;;;;;;-2.31;70.49;100391.53;1727180;82;20965;-52
2022/02/15 05:26:56;;;;;;;4.50;1.50;;;;;;;-2.32;70.61;100393.72;1727114;82;21405;-52
2022/02/15 05:29:24;;;;;;;5.73;1.70;;;;;;;-2.31;70.68;100400.77;1720465;82;20922;-53
2022/02/15 05:31:51;;;;;;;6.23;1.87;;;;;;;-2.30;70.59;100397.70;1741976;81;20977;-53
2022/02/15 05:34:18;;;;;;;3.57;1.60;;;;;;;-2.29;70.62;100399.44;1715594;82;20914;-53
2022/02/15 05:36:46;;;;;;;10.53;1.90;;;;;;;-2.27;70.63;100404.73;1743884;81;20881;-53
2022/02/15 05:39:13;;;;;;;5.17;1.70;;;;;;;-2.25;70.68;100410.50;1711373;83;21607;-53
2022/02/15 05:41:41;;;;;;;6.47;1.80;;;;;;;-2.18;70.81;100415.41;1718509;81;22197;-53
2022/02/15 05:44:07;;;;;;;4.87;1.67;;;;;;;-2.10;70.76;100411.13;1663535;84;21038;-52
2022/02/15 05:46:34;;;;;;;5.37;1.93;;;;;;;-1.99;70.69;100412.16;1684764;84;21095;-52
2022/02/15 05:49:02;;;;;;;4.00;1.70;;;;;;;-1.88;70.63;100406.59;1671918;84;21104;-51
2022/02/15 05:51:40;;;;;;;5.40;1.40;;;;;;;-1.78;70.52;100408.44;1673806;84;21828;-52
2022/02/15 05:54:14;;;;;;;3.95;1.52;;;;;;;-1.68;70.35;100403.73;1678587;84;21046;-52
2022/02/15 05:56:43;;;;;;;3.47;1.87;;;;;;;-1.58;70.21;100400.76;1668981;84;21081;-51
2022/02/15 05:59:11;;;;;;;5.53;1.73;;;;;;;-1.49;70.07;100406.14;1731590;81;21482;-52
2022/02/15 06:01:51;;;;;;;2.73;1.47;;;;;;;-1.41;69.92;100404.89;1736068;81;21297;-51
2022/02/15 06:04:18;;;;;;;3.67;1.57;;;;;;;-1.32;69.77;100408.52;1736364;82;21057;-51
2022/02/15 06:06:52;;;;;;;4.30;1.60;;;;;;;-1.21;69.61;100408.62;1739717;81;20907;-50
2022/02/15 06:09:19;;;;;;;5.07;1.53;;;;;;;-1.10;69.41;100404.73;1736827;82;20911;-51
2022/02/15 06:11:46;;;;;;;4.53;1.67;;;;;;;-1.00;69.19;100410.13;1738849;82;21385;-51
2022/02/15 06:14:12;;;;;;;7.50;1.93;;;;;;;-0.92;69.04;100407.11;1735335;80;21358;-51
2022/02/15 06:16:39;;;;;;;5.00;1.70;;;;;;;-0.84;68.77;100411.14;1734330;82;21082;-51
2022/02/15 06:19:10;;;;;;;5.00;1.37;;;;;;;-0.81;68.64;100412.06;1734093;81;20939;-51
2022/02/15 06:21:37;;;;;;;8.93;2.30;;;;;;;-0.76;68.52;100409.00;1739379;81;20942;-51
2022/02/15 06:24:06;;;;;;;5.97;2.37;;;;;;;-0.72;68.37;100412.56;1730631;81;20977;-52
2022/02/15 06:26:33;;;;;;;3.13;1.43;;;;;;;-0.68;68.26;100405.09;1736462;81;21405;-51
2022/02/15 06:29:07;;;;;;;4.57;1.67;;;;;;;-0.64;68.18;100406.90;1733151;82;21763;-51
2022/02/15 06:31:36;;;;;;;6.40;1.80;;;;;;;-0.58;68.11;100400.75;1733899;81;20946;-51
2022/02/15 06:34:04;;;;;;;4.77;1.20;;;;;;;-0.52;68.04;100404.35;1733979;81;21338;-51
2022/02/15 06:36:31;;;;;;;4.67;1.63;;;;;;;-0.47;67.89;100396.44;1738929;82;20966;-51
2022/02/15 06:38:58;;;;;;;2.50;1.30;;;;;;;-0.41;67.69;100392.50;1737450;82;20911;-51
2022/02/15 06:41:25;;;;;;;3.93;1.13;;;;;;;-0.36;67.58;100393.42;1730366;81;21142;-50
2022/02/15 06:43:53;;;;;;;3.23;1.00;;;;;;;-0.30;67.45;100395.21;1733670;80;21243;-50
2022/02/15 06:46:20;;;;;;;4.03;2.00;;;;;;;-0.24;67.32;100393.47;1705195;82;21173;-50
2022/02/15 06:48:47;;;;;;;2.17;1.23;;;;;;;-0.17;67.11;100390.45;1733150;80;21144;-50
2022/02/15 06:51:13;;;;;;;2.13;1.07;;;;;;;-0.10;66.93;100390.92;1733449;81;21696;-50
2022/02/15 06:53:45;;;;;;;6.17;1.40;;;;;;;-0.04;66.75;100394.91;1720353;82;21132;-49
2022/02/15 06:56:31;;;;;;;2.43;1.20;;;;;;;0.00;66.49;100386.98;1733082;82;21085;-50
2022/02/15 06:58:59;;;;;;;2.73;1.00;;;;;;;0.08;66.27;100387.03;1734635;80;21049;-50
2022/02/15 07:01:28;;;;;;;2.90;1.13;;;;;;;0.15;66.14;100389.27;1684148;83;20921;-50
2022/02/15 07:03:55;;;;;;;4.93;1.70;;;;;;;0.20;65.96;100387.06;1676748;84;21373;-50
2022/02/15 07:06:23;;;;;;;5.67;1.20;;;;;;;0.28;65.79;100392.38;1684529;84;20985;-51
2022/02/15 07:08:50;;;;;;;4.13;1.53;;;;;;;0.33;65.49;100390.66;1734453;80;21480;-52
2022/02/15 07:11:16;;;;;;;3.67;1.50;;;;;;;0.40;65.33;100390.22;1737222;80;21049;-51
2022/02/15 07:13:45;;;;;;;2.63;1.40;;;;;;;0.46;65.21;100388.47;1736529;82;21091;-53
2022/02/15 07:16:12;;;;;;;3.50;1.50;;;;;;;0.53;65.07;100388.92;1733238;82;21068;-51
2022/02/15 07:18:42;;;;;;;5.20;1.20;;;;;;;0.59;64.99;100383.66;1734953;80;21383;-53
2022/02/15 07:21:15;;;;;;;4.15;1.00;;;;;;;0.66;64.75;100385.87;1734105;82;20977;-53
2022/02/15 07:23:46;;;;;;;3.97;1.10;;;;;;;0.74;64.52;100387.66;1723725;82;21480;-50
2022/02/15 07:26:31;;;;;;;6.50;1.37;;;;;;;0.82;64.47;100385.45;1729639;80;21061;-52
2022/02/15 07:29:16;;;;;;;5.12;1.15;;;;;;;0.88;64.36;100381.47;1734718;80;21666;-54
2022/02/15 07:31:48;;;;;;;3.60;1.10;;;;;;;0.96;64.13;100376.61;1727241;80;21151;-54
2022/02/15 07:34:15;;;;;;;3.13;1.53;;;;;;;1.03;63.95;100369.09;1734993;80;21307;-53
2022/02/15 07:36:43;;;;;;;2.60;1.17;;;;;;;1.11;63.73;100379.70;1739212;80;21322;-52
2022/02/15 07:39:11;;;;;;;5.43;1.40;;;;;;;1.18;63.49;100366.02;1734860;80;21084;-53
2022/02/15 07:41:37;;;;;;;2.20;1.13;;;;;;;1.24;63.39;100369.98;1736164;80;21502;-54
2022/02/15 07:44:04;;;;;;;4.87;1.03;;;;;;;1.31;62.97;100370.41;1746178;80;21391;-54
2022/02/15 07:46:33;;;;;;;5.47;1.10;;;;;;;1.36;62.56;100360.23;1754181;80;21089;-54
2022/02/15 07:48:59;;;;;;;1.97;1.10;;;;;;;1.40;62.39;100355.37;1757067;80;21364;-53
2022/02/15 07:51:25;;;;;;;4.00;1.50;;;;;;;1.48;62.26;100354.03;1759334;80;21042;-54
2022/02/15 07:53:52;;;;;;;3.33;1.40;;;;;;;1.56;62.11;100359.31;1757112;80;20946;-53
2022/02/15 07:56:18;;;;;;;2.50;1.30;;;;;;;1.61;61.71;100357.55;1758142;80;21500;-56
2022/02/15 07:58:46;;;;;;;3.87;1.27;;;;;;;1.66;61.44;100355.31;1751796;80;21452;-55
2022/02/15 08:01:13;;;;;;;6.33;1.97;;;;;;;1.72;61.27;100354.41;1760532;80;21225;-54
2022/02/15 08:03:40;;;;;;;4.43;1.23;;;;;;;1.78;61.13;100359.72;1756493;80;21124;-59
2022/02/15 08:06:07;;;;;;;5.00;2.80;;;;;;;1.82;61.08;100346.86;1757875;80;21077;-56
2022/02/15 08:08:33;;;;;;;5.00;2.93;;;;;;;1.87;60.94;100350.40;1754480;79;21616;-55
2022/02/15 08:11:00;;;;;;;4.13;1.30;;;;;;;1.93;60.75;100346.83;1758883;80;21066;-58
2022/02/15 08:13:34;;;;;;;4.63;1.70;;;;;;;1.97;60.53;100347.23;1755942;80;21037;-55
2022/02/15 08:15:55;;;;;;;2.57;1.50;;;;;;;2.02;60.69;100351.66;1751838;80;21060;-58
2022/02/15 08:18:23;;;;;;;3.80;1.10;;;;;;;2.10;60.49;100348.52;1755081;80;21467;-54
2022/02/15 08:20:50;;;;;;;2.93;1.00;;;;;;;2.17;60.37;100345.38;1753288;80;21036;-58
2022/02/15 08:23:16;;;;;;;1.70;1.17;;;;;;;2.24;60.13;100344.45;1757118;80;21510;-55
2022/02/15 08:25:43;;;;;;;5.10;0.90;;;;;;;2.31;60.01;100346.63;1756810;80;21504;-58
2022/02/15 08:28:12;;;;;;;3.50;1.00;;;;;;;2.35;59.54;100346.63;1758099;80;21492;-53
2022/02/15 08:30:38;;;;;;;2.00;1.00;;;;;;;2.41;59.63;100351.00;1752353;80;21011;-56
2022/02/15 08:33:05;;;;;;;2.07;0.87;;;;;;;2.47;59.59;100342.98;1758282;80;21524;-54
2022/02/15 08:35:32;;;;;;;3.23;0.90;;;;;;;2.54;59.61;100346.95;1751218;80;21010;-54
2022/02/15 08:37:59;;;;;;;4.53;0.80;;;;;;;2.60;59.23;100340.70;1754716;80;21001;-55
2022/02/15 08:40:26;;;;;;;2.43;0.90;;;;;;;2.65;58.72;100336.23;1757357;80;21047;-57
2022/02/15 08:42:55;;;;;;;2.50;0.83;;;;;;;2.71;58.70;100340.64;1757584;79;21065;-55
2022/02/15 08:45:22;;;;;;;3.17;0.90;;;;;;;2.75;58.69;100337.05;1721712;82;21117;-58
2022/02/15 08:47:49;;;;;;;1.73;0.90;;;;;;;2.79;58.31;100326.84;1764810;79;21033;-55
2022/02/15 08:50:15;;;;;;;1.40;0.90;;;;;;;2.83;58.00;100327.23;1764246;80;21385;-56
2022/02/15 08:52:42;;;;;;;5.47;1.00;;;;;;;2.85;58.00;100332.10;1764326;80;21477;-54
2022/02/15 08:55:09;;;;;;;3.50;1.10;;;;;;;2.89;57.86;100331.20;1761729;80;21579;-55
2022/02/15 08:57:35;;;;;;;2.10;0.80;;;;;;;2.93;57.75;100327.60;1764566;80;21874;-54
2022/02/15 09:00:05;;;;;;;2.10;0.90;;;;;;;2.97;57.82;100329.36;1764097;79;21324;-55
2022/02/15 09:02:35;;;;;;;1.67;0.80;;;;;;;3.01;57.82;100331.96;1729181;82;21590;-55
2022/02/15 09:05:04;;;;;;;2.13;0.90;;;;;;;3.08;57.80;100327.91;1764653;80;21478;-56
2022/02/15 09:07:30;;;;;;;1.20;0.73;;;;;;;3.12;57.52;100329.66;1770368;80;22147;-57
2022/02/15 09:09:57;;;;;;;2.60;0.90;;;;;;;3.17;57.53;100322.06;1769546;79;21430;-55
2022/02/15 09:12:23;;;;;;;3.20;0.80;;;;;;;3.23;57.11;100319.81;1766591;80;20955;-55
2022/02/15 09:14:49;;;;;;;1.10;0.80;;;;;;;3.27;56.96;100321.53;1767571;80;20946;-58
2022/02/15 09:17:16;;;;;;;1.67;0.80;;;;;;;3.32;56.87;100318.36;1768888;80;21000;-58
2022/02/15 09:19:43;;;;;;;1.20;0.60;;;;;;;3.36;56.97;100323.66;1766092;79;21041;-57
2022/02/15 09:22:10;;;;;;;2.40;0.73;;;;;;;3.42;56.64;100316.05;1765420;80;21124;-57
2022/02/15 09:24:36;;;;;;;1.53;0.70;;;;;;;3.46;56.49;100315.14;1767955;79;20922;-55
2022/02/15 09:27:03;;;;;;;2.33;0.70;;;;;;;3.50;55.99;100316.84;1765935;80;20906;-54
2022/02/15 09:29:30;;;;;;;2.27;0.80;;;;;;;3.53;55.82;100302.64;1762832;80;20896;-58
2022/02/15 09:31:56;;;;;;;1.93;0.70;;;;;;;3.56;55.77;100303.95;1769657;79;20901;-55
2022/02/15 09:34:27;;;;;;;1.63;0.60;;;;;;;3.58;55.35;100300.34;1764510;80;21093;-57
2022/02/15 09:36:53;;;;;;;1.00;0.70;;;;;;;3.62;55.08;100305.20;1767595;80;20911;-54
2022/02/15 09:39:19;;;;;;;2.67;0.70;;;;;;;3.64;55.10;100305.63;1762180;80;20950;-55
2022/02/15 09:41:46;;;;;;;1.67;0.80;;;;;;;3.68;55.20;100304.67;1763459;80;20915;-56
2022/02/15 09:44:13;;;;;;;2.20;0.80;;;;;;;3.74;55.22;100302.41;1767673;80;21387;-56
2022/02/15 09:46:42;;;;;;;1.23;0.63;;;;;;;3.81;55.23;100302.77;1747578;80;21694;-55
2022/02/15 09:49:48;;;;;;;1.40;0.70;;;;;;;3.85;54.83;100289.82;1751513;80;20860;-53
2022/02/15 09:51:37;;;;;;;4.57;0.80;;;;;;;3.86;54.64;100290.70;1738708;80;21451;-55
2022/02/15 09:54:03;;;;;;;1.67;0.70;;;;;;;3.89;54.73;100285.34;1746320;80;20886;-54
2022/02/15 09:56:30;;;;;;;1.10;0.67;;;;;;;3.91;54.73;100282.22;1742635;80;21360;-54
2022/02/15 09:58:56;;;;;;;1.70;1.20;;;;;;;3.95;54.81;100281.27;1744486;80;21141;-58
2022/02/15 10:01:22;;;;;;;2.20;0.63;;;;;;;3.99;54.64;100279.89;1743063;80;20897;-54
2022/02/15 10:03:58;;;;;;;1.57;0.83;;;;;;;4.02;54.39;100269.17;1743949;80;21391;-55
2022/02/15 10:06:31;;;;;;;1.63;1.03;;;;;;;4.04;54.35;100271.83;1747205;80;21070;-59
2022/02/15 10:08:59;;;;;;;1.67;0.80;;;;;;;4.02;54.22;100263.84;1746635;80;20923;-57
2022/02/15 10:11:40;;;;;;;2.63;0.70;;;;;;;4.05;54.27;100260.27;1744264;80;21125;-58
2022/02/15 10:14:07;;;;;;;1.43;0.70;;;;;;;4.09;54.14;100258.86;1746461;80;21563;-55
2022/02/15 10:16:49;;;;;;;1.40;0.60;;;;;;;4.14;54.12;100249.48;1744889;80;21521;-58
2022/02/15 10:19:29;;;;;;;2.07;0.83;;;;;;;4.18;53.72;100253.85;1744927;80;21377;-56
2022/02/15 10:21:59;;;;;;;2.83;0.60;;;;;;;4.17;53.55;100246.30;1743534;80;21019;-54
2022/02/15 10:24:28;;;;;;;1.97;0.90;;;;;;;4.21;53.53;100244.94;1747290;80;21718;-55
2022/02/15 10:27:01;;;;;;;1.80;0.70;;;;;;;4.25;53.22;100248.89;1745102;80;21537;-57
2022/02/15 10:29:33;;;;;;;1.10;0.80;;;;;;;4.25;53.04;100246.23;1745879;80;22493;-56
2022/02/15 10:32:02;;;;;;;2.63;0.70;;;;;;;4.26;52.92;100248.41;1745901;80;21039;-56
2022/02/15 10:34:29;;;;;;;2.93;1.30;;;;;;;4.27;53.29;100247.51;1741736;80;21044;-58
2022/02/15 10:37:03;;;;;;;1.67;0.70;;;;;;;4.29;53.00;100247.04;1744355;80;21898;-57
2022/02/15 10:39:48;;;;;;;1.12;0.75;;;;;;;4.32;52.89;100236.34;1747186;80;21290;-55
2022/02/15 10:42:18;;;;;;;1.87;0.80;;;;;;;4.33;52.40;100235.00;1717362;80;28067;-57
2022/02/15 10:44:59;;;;;;;2.80;0.70;;;;;;;4.34;52.47;100230.06;1749373;80;21113;-57
2022/02/15 10:47:35;;;;;;;2.97;0.80;;;;;;;4.34;52.26;100223.41;1759011;80;21071;-55
2022/02/15 10:50:09;;;;;;;2.43;0.80;;;;;;;4.33;52.57;100226.12;1760275;80;21464;-55
2022/02/15 10:52:35;;;;;;;2.27;0.90;;;;;;;4.34;52.88;100219.89;1755478;80;21497;-55
2022/02/15 10:55:01;;;;;;;2.40;0.83;;;;;;;4.38;53.04;100231.80;1756827;80;21047;-56
2022/02/15 10:57:29;;;;;;;2.00;0.90;;;;;;;4.42;53.36;100220.64;1757432;80;21091;-56
2022/02/15 10:59:57;;;;;;;3.20;0.90;;;;;;;4.45;53.22;100218.80;1756697;80;21055;-56
2022/02/15 11:02:27;;;;;;;1.70;0.90;;;;;;;4.48;53.19;100221.88;1759341;80;21115;-55
2022/02/15 11:04:55;;;;;;;2.63;0.90;;;;;;;4.49;52.98;100213.86;1759317;80;20995;-57
2022/02/15 11:07:27;;;;;;;2.37;0.90;;;;;;;4.50;53.24;100206.74;1758116;80;21053;-55
2022/02/15 11:10:18;;;;;;;3.63;1.20;;;;;;;4.50;53.56;100204.95;1755787;80;21104;-55
2022/02/15 11:12:54;;;;;;;3.40;1.00;;;;;;;4.53;53.37;100206.67;1757291;80;21315;-56
2022/02/15 11:15:29;;;;;;;5.00;1.13;;;;;;;4.54;53.72;100201.77;1755256;80;21573;-56
2022/02/15 11:18:01;;;;;;;1.80;0.90;;;;;;;4.54;53.99;100197.77;1756599;80;22572;-54
2022/02/15 11:20:50;;;;;;;2.27;1.30;;;;;;;4.52;54.12;100192.91;1756257;80;21589;-54
2022/02/15 11:23:00;;;;;;;3.10;0.80;;;;;;;4.51;53.97;100193.36;1757043;79;21102;-54
2022/02/15 11:25:34;;;;;;;1.57;0.90;;;;;;;4.52;54.19;100189.79;1755831;79;22343;-54
2022/02/15 11:28:13;;;;;;;1.85;0.90;;;;;;;4.54;54.08;100195.10;1758333;80;21152;-54
2022/02/15 11:30:55;;;;;;;4.20;1.07;;;;;;;4.56;53.85;100190.63;1755813;79;21546;-56
2022/02/15 11:33:24;;;;;;;2.07;0.87;;;;;;;4.57;53.46;100197.73;1753712;80;21050;-55
2022/02/15 11:36:05;;;;;;;1.17;0.80;;;;;;;4.55;53.38;100186.20;1760162;80;21527;-56
2022/02/15 11:38:32;;;;;;;1.50;0.70;;;;;;;4.54;53.14;100191.10;1753036;80;21060;-55
2022/02/15 11:41:08;;;;;;;2.23;0.80;;;;;;;4.54;53.24;100190.66;1762875;80;21649;-55